Pagina principale
METAR-TAF:

METAR-TAF

Aeroporti :

Užice, Serbia

latitudine: 43-53-56N, longitudine: 19-41-52E, altezza: 904 m

Osservazione

Il bollettino è stato emesso 37 minuti fa, alle 23:00 UTC
Vento 4 kt da ovest/nord-ovest
Temperature 7°C
Umidità 100%
Pressione 1020 hPa
Visibilità 10 km o più

METAR: LYUZ 142300Z AUTO 29004KT 9999 FEW032/// SCT047/// BKN074/// 07/07 Q1020

Ora: 01:37 (23:37 UTC)

Previsione

Il bollettino è stato emesso 6 ore e 37 minuti fa, alle 17:00 UTC
Previsione valida dal 14 alle 18 UTC al 15 alle 18 UTC
Vento 4 kt da ovest
Visibilità 10 km o più
Nubi sparse ad un'altezza di 2000 ft
Temporaneamente
dal 15 alle 09 UTC al 15 alle 16 UTC
Vento 15 kt da nord

TAF: LYUZ 141700Z 1418/1518 28004KT 9999 SCT020 TX18/1513Z TN07/1503Z TEMPO 1509/1516 35015KT

Osservazioni e previsioni meteorologiche di più di 4000 aeroporti (messaggi METAR e TAF).

Le stazioni disponibili sono rappresentate dai dischi gialli e rossi sulla carta.

Puntare il mouse per vedere il nome della stazione.

Clicca sopra per visualizzare le osservazioni e previsioni meteorologiche.

Per cambiare la mappa : fare clic sui pulsanti verdi con una croce nera per ingrandire, il pulsante verde con un trattino per diminuire, o sulla freccia verde per le mappe adiacenti.


METAR-TAF: